Time;durP1;ratioP1;P1;durP2;ratioP2;P2;SDS_P1;SDS_P2;PMS_P1;PMS_P2;Temp;Humidity;BMP_temperature;BMP_pressure;BME280_temperature;BME280_humidity;BME280_pressure;Samples;Min_cycle;Max_cycle;Signal;HPM_P1;HPM_P2
2021/11/13 00:01:59;;;;;;;2.28;2.15;;;19.10;50.20;;;;;;5066706;28;20033;-52
2021/11/13 00:04:26;;;;;;;3.92;1.48;;;19.10;50.30;;;;;;5065981;28;20118;-52
2021/11/13 00:06:53;;;;;;;1.58;1.48;;;19.00;50.80;;;;;;5070163;28;20151;-52
2021/11/13 00:09:22;;;;;;;2.55;1.95;;;19.10;50.30;;;;;;5075670;28;20046;-50
2021/11/13 00:11:49;;;;;;;4.68;1.42;;;19.00;50.90;;;;;;5069219;28;20554;-48
2021/11/13 00:14:17;;;;;;;2.63;1.70;;;19.00;50.30;;;;;;5066644;28;20035;-50
2021/11/13 00:16:45;;;;;;;5.15;1.98;;;19.00;50.30;;;;;;5067883;28;20060;-50
2021/11/13 00:19:13;;;;;;;2.35;1.23;;;19.00;50.30;;;;;;5064414;28;20054;-51
2021/11/13 00:21:40;;;;;;;6.80;1.33;;;19.00;50.40;;;;;;5068338;28;20061;-49
2021/11/13 00:24:07;;;;;;;2.65;1.75;;;19.00;50.40;;;;;;5065609;28;20037;-50
2021/11/13 00:26:36;;;;;;;3.88;0.90;;;19.00;50.40;;;;;;5072945;28;20501;-50
2021/11/13 00:29:03;;;;;;;5.40;1.63;;;19.00;50.40;;;;;;5064472;28;20051;-49
2021/11/13 00:31:31;;;;;;;3.13;1.88;;;19.00;50.40;;;;;;5075432;28;20062;-50
2021/11/13 00:33:58;;;;;;;5.22;2.15;;;19.00;50.50;;;;;;5076343;28;20086;-48
2021/11/13 00:36:25;;;;;;;3.63;1.30;;;19.00;50.50;;;;;;5068186;28;25970;-50
2021/11/13 00:38:53;;;;;;;5.13;1.88;;;19.00;50.50;;;;;;5069633;28;20048;-52
2021/11/13 00:41:20;;;;;;;2.72;1.40;;;19.00;50.50;;;;;;5072824;28;20040;-48
2021/11/13 00:43:49;;;;;;;1.95;1.40;;;19.00;51.10;;;;;;5075934;28;20423;-52
2021/11/13 00:46:16;;;;;;;2.15;1.25;;;19.00;50.50;;;;;;5068345;28;20097;-48
2021/11/13 00:48:43;;;;;;;4.05;1.40;;;19.00;50.50;;;;;;5065318;28;20513;-50
2021/11/13 00:51:11;;;;;;;4.20;1.55;;;19.00;50.50;;;;;;5070654;28;20041;-51
2021/11/13 00:53:38;;;;;;;1.17;0.68;;;19.00;50.50;;;;;;5075290;28;20123;-49
2021/11/13 00:56:05;;;;;;;2.17;1.20;;;19.00;50.50;;;;;;5069685;28;20041;-50
2021/11/13 00:58:33;;;;;;;2.75;1.38;;;19.00;50.50;;;;;;5067151;28;20508;-48
2021/11/13 01:01:02;;;;;;;2.40;1.52;;;19.00;50.50;;;;;;5068597;28;20040;-48
2021/11/13 01:03:29;;;;;;;3.50;1.38;;;19.00;50.60;;;;;;5063629;28;20068;-48
2021/11/13 01:05:56;;;;;;;3.03;1.13;;;19.00;50.60;;;;;;5077119;28;20044;-52
2021/11/13 01:08:24;;;;;;;3.65;2.25;;;19.00;50.60;;;;;;5067566;28;20123;-50
2021/11/13 01:10:52;;;;;;;3.83;1.30;;;19.00;50.60;;;;;;5065396;28;20044;-50
2021/11/13 01:13:19;;;;;;;4.15;1.33;;;19.00;50.60;;;;;;5065466;28;20043;-51
2021/11/13 01:15:53;;;;;;;3.15;1.30;;;19.00;50.60;;;;;;5063401;28;20037;-50
2021/11/13 01:18:22;;;;;;;1.35;1.20;;;18.90;50.60;;;;;;5070155;28;20051;-48
2021/11/13 01:20:49;;;;;;;2.78;1.92;;;19.00;50.70;;;;;;5068385;28;20036;-52
2021/11/13 01:23:16;;;;;;;2.65;1.70;;;19.00;50.60;;;;;;5065795;28;20130;-52
2021/11/13 01:25:43;;;;;;;2.95;1.10;;;19.00;50.60;;;;;;5068165;28;20043;-49
2021/11/13 01:28:14;;;;;;;3.28;1.48;;;19.00;50.60;;;;;;5061776;28;20044;-50
2021/11/13 01:30:41;;;;;;;0.95;0.95;;;19.00;50.70;;;;;;5065006;28;20040;-50
2021/11/13 01:33:08;;;;;;;3.00;1.50;;;19.00;50.70;;;;;;5070145;28;20047;-51
2021/11/13 01:35:37;;;;;;;4.22;2.13;;;19.00;50.70;;;;;;5069633;28;20044;-53
2021/11/13 01:38:04;;;;;;;1.48;1.15;;;19.00;50.70;;;;;;5066027;28;20052;-51
2021/11/13 01:40:36;;;;;;;2.25;1.30;;;19.00;50.70;;;;;;5076657;28;20043;-51
2021/11/13 01:43:04;;;;;;;2.67;1.30;;;19.00;50.70;;;;;;5072929;28;20672;-51
2021/11/13 01:45:31;;;;;;;1.25;1.02;;;19.00;50.80;;;;;;5072748;28;20040;-49
2021/11/13 01:47:58;;;;;;;3.13;1.52;;;19.00;50.80;;;;;;5086326;28;20043;-52
2021/11/13 01:50:28;;;;;;;4.90;2.20;;;18.90;50.80;;;;;;5066012;28;20037;-52
2021/11/13 01:52:56;;;;;;;5.93;2.10;;;19.00;50.80;;;;;;5097160;27;20230;-49
2021/11/13 01:55:28;;;;;;;2.88;1.27;;;19.00;50.90;;;;;;5064640;28;20467;-47
2021/11/13 01:57:56;;;;;;;3.15;1.27;;;19.00;51.50;;;;;;5067429;28;20036;-48
2021/11/13 02:00:28;;;;;;;8.85;1.73;;;19.00;51.20;;;;;;5072959;28;20051;-47
2021/11/13 02:02:56;;;;;;;11.15;1.13;;;19.00;51.80;;;;;;5067033;28;20048;-49
2021/11/13 02:05:24;;;;;;;5.78;1.42;;;19.00;52.10;;;;;;5065469;28;20051;-48
2021/11/13 02:07:51;;;;;;;4.25;1.33;;;19.00;52.30;;;;;;5067445;28;20071;-48
2021/11/13 02:10:23;;;;;;;4.88;1.30;;;19.00;52.40;;;;;;5065733;28;20135;-49
2021/11/13 02:12:50;;;;;;;6.60;2.30;;;19.00;52.50;;;;;;5062306;28;20041;-47
2021/11/13 02:15:17;;;;;;;6.78;1.20;;;19.00;52.60;;;;;;5074809;28;20782;-50
2021/11/13 02:17:45;;;;;;;9.15;2.00;;;19.00;52.60;;;;;;5067305;28;20052;-48
2021/11/13 02:20:29;;;;;;;9.50;1.17;;;19.00;52.70;;;;;;5063321;28;20123;-48
2021/11/13 02:22:58;;;;;;;5.13;1.42;;;19.10;52.70;;;;;;5064560;28;20102;-50
2021/11/13 02:25:28;;;;;;;10.60;1.33;;;19.00;52.70;;;;;;5070623;28;20493;-49
2021/11/13 02:27:56;;;;;;;7.45;1.95;;;19.00;52.80;;;;;;5067107;28;20045;-47
2021/11/13 02:30:23;;;;;;;3.28;1.67;;;19.00;52.90;;;;;;5066488;28;20523;-47
2021/11/13 02:32:53;;;;;;;7.18;0.75;;;19.00;52.90;;;;;;5080456;28;20040;-49
2021/11/13 02:35:20;;;;;;;5.15;1.25;;;19.00;52.90;;;;;;5068590;28;20045;-49
2021/11/13 02:37:49;;;;;;;5.13;1.17;;;19.00;53.00;;;;;;5066609;28;20041;-50
2021/11/13 02:40:18;;;;;;;5.03;1.77;;;19.10;53.20;;;;;;5061669;28;20634;-48
2021/11/13 02:42:46;;;;;;;9.88;1.10;;;19.10;53.10;;;;;;5061112;28;20037;-47
2021/11/13 02:45:14;;;;;;;2.65;0.70;;;19.10;53.30;;;;;;5062716;28;20068;-48
2021/11/13 02:47:43;;;;;;;4.60;2.45;;;19.10;53.40;;;;;;5063593;28;20115;-47
2021/11/13 02:50:12;;;;;;;5.57;0.85;;;19.10;53.30;;;;;;5060997;28;20040;-48
2021/11/13 02:52:44;;;;;;;8.23;2.13;;;19.10;53.30;;;;;;5062777;28;20045;-48
2021/11/13 02:55:12;;;;;;;4.25;1.30;;;19.10;53.30;;;;;;5063721;28;20125;-48
2021/11/13 02:57:40;;;;;;;3.63;0.65;;;19.10;53.30;;;;;;5062875;28;20048;-47
2021/11/13 03:00:09;;;;;;;3.63;1.75;;;19.10;53.20;;;;;;5063148;28;21554;-47
2021/11/13 03:02:37;;;;;;;6.47;1.70;;;19.10;53.30;;;;;;5064944;28;20040;-47
2021/11/13 03:05:05;;;;;;;5.10;1.40;;;19.10;53.20;;;;;;5063226;28;20064;-48
2021/11/13 03:07:32;;;;;;;1.67;0.60;;;19.10;53.20;;;;;;5063680;28;20421;-48
2021/11/13 03:10:01;;;;;;;3.60;1.08;;;19.10;53.20;;;;;;5064805;28;20132;-50
2021/11/13 03:12:29;;;;;;;2.78;0.80;;;19.10;53.20;;;;;;5071111;28;20036;-48
2021/11/13 03:14:56;;;;;;;6.60;1.05;;;19.10;53.80;;;;;;5068728;28;20421;-48
2021/11/13 03:17:23;;;;;;;2.70;1.02;;;19.10;53.20;;;;;;5067244;28;20537;-49
2021/11/13 03:19:50;;;;;;;5.28;0.93;;;19.10;53.20;;;;;;5073307;28;20044;-46
2021/11/13 03:22:17;;;;;;;6.78;0.70;;;19.10;53.20;;;;;;5065078;28;20052;-47
2021/11/13 03:24:44;;;;;;;3.45;1.13;;;19.10;53.20;;;;;;5064824;28;20063;-46
2021/11/13 03:27:12;;;;;;;2.90;0.90;;;19.10;53.20;;;;;;5066058;28;20483;-47
2021/11/13 03:29:45;;;;;;;1.30;1.05;;;19.10;53.20;;;;;;5063705;28;20146;-47
2021/11/13 03:32:13;;;;;;;3.53;1.10;;;19.10;53.20;;;;;;5064939;28;20037;-47
2021/11/13 03:34:39;;;;;;;4.47;1.27;;;19.10;53.20;;;;;;5064658;28;20445;-52
2021/11/13 03:37:07;;;;;;;3.10;0.70;;;19.10;53.20;;;;;;5073611;28;20032;-47
2021/11/13 03:39:33;;;;;;;3.17;0.57;;;19.10;53.20;;;;;;5065546;28;20040;-48
2021/11/13 03:42:04;;;;;;;2.92;0.80;;;19.10;53.20;;;;;;5068401;28;20123;-49
2021/11/13 03:44:31;;;;;;;3.40;0.75;;;19.10;53.30;;;;;;5064081;28;20036;-47
2021/11/13 03:46:59;;;;;;;4.97;1.48;;;19.10;53.30;;;;;;5063905;28;20036;-48
2021/11/13 03:49:26;;;;;;;3.38;0.60;;;19.10;53.30;;;;;;5063656;28;23413;-48
2021/11/13 03:51:53;;;;;;;3.83;0.80;;;19.10;53.40;;;;;;5066204;28;20040;-48
2021/11/13 03:54:20;;;;;;;1.55;0.68;;;19.10;53.30;;;;;;5066165;28;20204;-47
2021/11/13 03:56:47;;;;;;;4.57;0.52;;;19.10;53.40;;;;;;5073993;28;20504;-47
2021/11/13 03:59:14;;;;;;;3.28;0.88;;;19.10;53.40;;;;;;5068718;28;20040;-49
2021/11/13 04:01:42;;;;;;;3.13;0.55;;;19.10;53.40;;;;;;5068864;28;20043;-47
2021/11/13 04:04:10;;;;;;;1.25;0.57;;;19.10;53.40;;;;;;5064823;28;20114;-48
2021/11/13 04:06:37;;;;;;;2.15;0.30;;;19.10;53.40;;;;;;5072956;28;20127;-48
2021/11/13 04:09:04;;;;;;;1.92;0.32;;;19.10;54.00;;;;;;5071908;28;20052;-48
2021/11/13 04:11:31;;;;;;;4.65;0.68;;;19.10;53.40;;;;;;5067301;28;20731;-47
2021/11/13 04:13:58;;;;;;;2.65;0.80;;;19.10;53.40;;;;;;5066801;28;20043;-46
2021/11/13 04:16:25;;;;;;;3.47;0.88;;;19.10;53.40;;;;;;5065695;28;20051;-46
2021/11/13 04:18:52;;;;;;;1.42;0.30;;;19.10;53.40;;;;;;5065692;28;20041;-47
2021/11/13 04:21:21;;;;;;;3.35;0.50;;;19.10;53.40;;;;;;5068966;28;20087;-48
2021/11/13 04:23:48;;;;;;;3.30;0.47;;;19.10;53.50;;;;;;5069388;28;20567;-47
2021/11/13 04:26:15;;;;;;;3.63;0.50;;;19.10;53.50;;;;;;5071127;28;20056;-50
2021/11/13 04:28:42;;;;;;;2.58;0.40;;;19.10;53.50;;;;;;5067151;28;20068;-47
2021/11/13 04:31:09;;;;;;;2.67;0.45;;;19.10;53.50;;;;;;5065894;28;20803;-48
2021/11/13 04:33:36;;;;;;;4.43;0.85;;;19.10;53.50;;;;;;5079246;28;20420;-46
2021/11/13 04:36:08;;;;;;;5.88;0.98;;;19.10;53.50;;;;;;5062392;28;20037;-50
2021/11/13 04:38:37;;;;;;;4.22;0.90;;;19.10;53.50;;;;;;5068881;28;20107;-49
2021/11/13 04:41:07;;;;;;;1.48;0.30;;;19.20;53.60;;;;;;5064120;28;20386;-46
2021/11/13 04:43:35;;;;;;;2.17;0.35;;;19.10;53.50;;;;;;5069629;28;20037;-47
2021/11/13 04:46:02;;;;;;;1.63;0.30;;;19.10;53.50;;;;;;5070266;28;20028;-47
2021/11/13 04:48:29;;;;;;;2.92;0.95;;;19.10;53.50;;;;;;5081062;28;20609;-47
2021/11/13 04:50:57;;;;;;;2.38;0.28;;;19.10;53.50;;;;;;5068141;28;20036;-48
2021/11/13 04:53:25;;;;;;;3.95;0.40;;;19.10;53.60;;;;;;5066989;28;20044;-49
2021/11/13 04:55:53;;;;;;;1.58;0.28;;;19.10;53.50;;;;;;5065009;28;20489;-47
2021/11/13 04:58:21;;;;;;;2.33;0.73;;;19.10;53.60;;;;;;5067314;28;20194;-47
2021/11/13 05:00:48;;;;;;;2.17;0.50;;;19.10;53.60;;;;;;5065930;28;20037;-48
2021/11/13 05:03:15;;;;;;;1.98;0.30;;;19.20;53.70;;;;;;5067116;28;20524;-48
2021/11/13 05:05:42;;;;;;;2.50;0.45;;;19.10;53.70;;;;;;5045934;28;20029;-48
2021/11/13 05:08:09;;;;;;;0.70;0.35;;;19.10;53.70;;;;;;5065336;28;20048;-47
2021/11/13 05:10:39;;;;;;;1.08;0.28;;;19.10;53.70;;;;;;5062224;28;20119;-48
2021/11/13 05:13:07;;;;;;;0.77;0.40;;;19.10;53.70;;;;;;5064986;28;20056;-51
2021/11/13 05:15:34;;;;;;;2.25;0.40;;;19.10;53.70;;;;;;5062783;28;20033;-48
2021/11/13 05:18:01;;;;;;;2.90;0.30;;;19.10;53.70;;;;;;5067138;28;20451;-49
2021/11/13 05:20:28;;;;;;;2.50;0.85;;;19.10;54.00;;;;;;5062031;28;20086;-46
2021/11/13 05:22:55;;;;;;;2.65;0.20;;;19.10;54.10;;;;;;5073015;28;20058;-49
2021/11/13 05:25:23;;;;;;;1.05;0.20;;;19.10;54.10;;;;;;5063045;28;20053;-48
2021/11/13 05:27:51;;;;;;;7.20;0.20;;;19.20;54.10;;;;;;5063287;28;20051;-46
2021/11/13 05:30:21;;;;;;;1.58;0.28;;;19.10;54.00;;;;;;5064359;28;20487;-48
2021/11/13 05:32:49;;;;;;;1.42;0.85;;;19.20;54.10;;;;;;5078166;28;20052;-47
2021/11/13 05:35:17;;;;;;;0.70;0.25;;;19.10;54.10;;;;;;5067726;28;20067;-48
2021/11/13 05:37:46;;;;;;;0.95;0.15;;;19.20;54.70;;;;;;5063057;28;20039;-47
2021/11/13 05:40:14;;;;;;;0.43;0.43;;;19.20;54.10;;;;;;5058559;28;20478;-48
2021/11/13 05:42:43;;;;;;;2.30;0.35;;;19.20;54.10;;;;;;5068673;28;20037;-48
2021/11/13 05:45:12;;;;;;;2.03;0.25;;;19.20;54.20;;;;;;5062483;28;20087;-47
2021/11/13 05:47:41;;;;;;;7.13;0.22;;;19.20;54.20;;;;;;5072859;28;20260;-49
2021/11/13 05:50:11;;;;;;;2.17;0.93;;;19.20;54.20;;;;;;5069955;28;20056;-48
2021/11/13 05:52:40;;;;;;;1.45;0.38;;;19.20;54.20;;;;;;5069510;28;20051;-48
2021/11/13 05:55:07;;;;;;;2.72;0.28;;;19.20;54.20;;;;;;5072738;28;20029;-47
2021/11/13 05:57:35;;;;;;;1.75;0.20;;;19.20;54.20;;;;;;5057544;28;20037;-45
2021/11/13 06:00:02;;;;;;;1.63;0.47;;;19.20;54.20;;;;;;5081161;28;20044;-49
2021/11/13 06:02:40;;;;;;;1.90;0.38;;;19.20;54.20;;;;;;5065634;28;20518;-45
2021/11/13 06:05:08;;;;;;;0.40;0.15;;;19.20;54.20;;;;;;5071592;28;20037;-49
2021/11/13 06:07:35;;;;;;;1.10;0.20;;;19.20;54.20;;;;;;5064528;28;20524;-51
2021/11/13 06:10:03;;;;;;;0.90;0.20;;;19.20;54.20;;;;;;5063480;28;20040;-49
2021/11/13 06:12:30;;;;;;;3.78;0.47;;;19.20;54.20;;;;;;5068690;28;20539;-50
2021/11/13 06:14:57;;;;;;;0.55;0.20;;;19.20;54.20;;;;;;5062530;28;20131;-48
2021/11/13 06:17:24;;;;;;;3.28;0.20;;;19.20;54.20;;;;;;5068491;28;20037;-47
2021/11/13 06:19:53;;;;;;;2.15;0.40;;;19.20;54.20;;;;;;5061897;28;20112;-52
2021/11/13 06:22:20;;;;;;;1.05;0.28;;;19.20;54.20;;;;;;5064492;28;20452;-46
2021/11/13 06:24:47;;;;;;;2.67;0.20;;;19.20;54.20;;;;;;5062133;28;20063;-46
2021/11/13 06:27:16;;;;;;;0.90;0.10;;;19.20;54.20;;;;;;5065277;28;20056;-46
2021/11/13 06:29:43;;;;;;;2.60;0.47;;;19.20;54.20;;;;;;5063769;28;20055;-47
2021/11/13 06:32:10;;;;;;;2.33;0.40;;;19.20;54.20;;;;;;5071966;28;20046;-47
2021/11/13 06:34:39;;;;;;;0.80;0.75;;;19.20;54.30;;;;;;5075962;28;20048;-52
2021/11/13 06:37:08;;;;;;;1.20;0.40;;;19.20;54.30;;;;;;5061509;28;20045;-47
2021/11/13 06:39:35;;;;;;;2.33;0.20;;;19.20;54.40;;;;;;5059855;28;20505;-47
2021/11/13 06:42:04;;;;;;;0.85;0.10;;;19.20;54.30;;;;;;5063714;28;20056;-48
2021/11/13 06:44:31;;;;;;;3.53;1.10;;;19.20;54.40;;;;;;5063163;28;20047;-48
2021/11/13 06:46:59;;;;;;;0.63;0.30;;;19.20;54.30;;;;;;5061404;28;20044;-49
2021/11/13 06:49:26;;;;;;;0.70;0.10;;;19.20;54.30;;;;;;5065071;28;20048;-46
2021/11/13 06:51:53;;;;;;;6.03;0.13;;;19.20;54.40;;;;;;5068137;28;20041;-46
2021/11/13 06:54:22;;;;;;;1.58;0.20;;;19.20;54.30;;;;;;5078979;28;20040;-46
2021/11/13 06:56:49;;;;;;;0.47;0.10;;;19.20;54.30;;;;;;5064092;28;20051;-46
2021/11/13 06:59:17;;;;;;;1.13;0.52;;;19.20;54.30;;;;;;5063329;28;20588;-48
2021/11/13 07:01:44;;;;;;;1.00;0.10;;;19.20;54.30;;;;;;5066090;28;20059;-46
2021/11/13 07:04:11;;;;;;;1.35;0.75;;;19.20;54.30;;;;;;5065679;28;20032;-48
2021/11/13 07:06:38;;;;;;;2.58;1.17;;;19.20;54.30;;;;;;5071369;28;20032;-47
2021/11/13 07:09:05;;;;;;;0.10;0.10;;;19.20;54.30;;;;;;5088033;28;20047;-46
2021/11/13 07:11:34;;;;;;;0.38;0.10;;;19.30;54.40;;;;;;5069761;28;20037;-47
2021/11/13 07:14:01;;;;;;;0.77;0.10;;;19.30;54.30;;;;;;5066076;28;20051;-46
2021/11/13 07:16:28;;;;;;;0.30;0.13;;;19.30;54.30;;;;;;5064825;28;20519;-48
2021/11/13 07:18:55;;;;;;;1.92;0.10;;;19.30;54.30;;;;;;5064710;28;20047;-49
2021/11/13 07:21:22;;;;;;;0.68;0.10;;;19.30;54.40;;;;;;5066840;28;20037;-49
2021/11/13 07:23:50;;;;;;;3.22;0.73;;;19.30;54.30;;;;;;5065511;28;20644;-46
2021/11/13 07:26:17;;;;;;;1.48;0.10;;;19.30;54.40;;;;;;5065132;28;20052;-46
2021/11/13 07:28:49;;;;;;;1.25;0.10;;;19.30;54.40;;;;;;5069677;28;20135;-47
2021/11/13 07:31:18;;;;;;;0.85;0.00;;;19.30;54.40;;;;;;5063680;28;20053;-47
2021/11/13 07:33:49;;;;;;;0.55;0.10;;;19.30;54.40;;;;;;5065102;28;20048;-47
2021/11/13 07:36:16;;;;;;;0.32;0.10;;;19.30;54.40;;;;;;5073441;28;20080;-49
2021/11/13 07:38:43;;;;;;;0.20;0.10;;;19.30;54.40;;;;;;5068024;28;20036;-46
2021/11/13 07:41:11;;;;;;;0.40;0.10;;;19.30;54.40;;;;;;5105866;27;20119;-46
2021/11/13 07:43:38;;;;;;;0.65;0.17;;;19.30;55.00;;;;;;5068326;28;20094;-46
2021/11/13 07:46:07;;;;;;;1.10;0.20;;;19.30;54.40;;;;;;5072944;28;20119;-47
2021/11/13 07:48:34;;;;;;;0.82;0.10;;;19.30;54.40;;;;;;5076278;28;20045;-50
2021/11/13 07:51:03;;;;;;;0.68;0.00;;;19.30;54.50;;;;;;5065615;28;20163;-51
2021/11/13 07:53:31;;;;;;;0.85;0.10;;;19.30;54.40;;;;;;5065030;28;20907;-47
2021/11/13 07:55:58;;;;;;;0.20;0.05;;;19.30;54.40;;;;;;5073358;28;20048;-51
2021/11/13 07:58:25;;;;;;;0.40;0.10;;;19.30;54.40;;;;;;5067102;28;20041;-47
2021/11/13 08:00:53;;;;;;;2.25;0.00;;;19.30;54.40;;;;;;5065250;28;20080;-48
2021/11/13 08:03:21;;;;;;;0.50;0.10;;;19.30;54.40;;;;;;5064217;28;20066;-48
2021/11/13 08:05:48;;;;;;;2.47;0.50;;;19.30;54.60;;;;;;5069967;28;20051;-47
2021/11/13 08:08:16;;;;;;;1.90;0.10;;;19.30;54.70;;;;;;5063940;28;20053;-48
2021/11/13 08:10:43;;;;;;;1.85;0.20;;;19.30;54.70;;;;;;5065836;28;20072;-49
2021/11/13 08:13:11;;;;;;;0.93;0.10;;;19.30;54.70;;;;;;5076128;28;20740;-48
2021/11/13 08:15:38;;;;;;;0.20;0.10;;;19.30;54.70;;;;;;5065281;28;20047;-49
2021/11/13 08:18:07;;;;;;;0.65;0.10;;;19.30;54.70;;;;;;5067638;28;20074;-51
2021/11/13 08:20:36;;;;;;;0.25;0.10;;;19.40;55.30;;;;;;5070650;28;20044;-47
2021/11/13 08:23:04;;;;;;;5.78;0.20;;;19.30;54.70;;;;;;5068886;28;20033;-53
2021/11/13 08:25:32;;;;;;;0.17;0.05;;;19.40;54.70;;;;;;5072572;28;20120;-49
2021/11/13 08:28:00;;;;;;;2.13;0.10;;;19.40;54.70;;;;;;5059468;28;20086;-47
2021/11/13 08:30:28;;;;;;;2.10;0.10;;;19.40;54.70;;;;;;5078017;28;20049;-47
2021/11/13 08:32:57;;;;;;;1.80;0.13;;;19.40;54.70;;;;;;5087215;28;20044;-48
2021/11/13 08:35:25;;;;;;;3.85;0.30;;;19.40;54.70;;;;;;5067853;28;20173;-51
2021/11/13 08:37:53;;;;;;;1.85;0.47;;;19.40;54.70;;;;;;5072928;28;20181;-48
2021/11/13 08:40:20;;;;;;;0.10;0.10;;;19.40;54.70;;;;;;5063473;28;20801;-49
2021/11/13 08:42:48;;;;;;;2.95;0.47;;;19.40;54.60;;;;;;5074957;28;20044;-48
2021/11/13 08:45:15;;;;;;;0.82;0.10;;;19.40;54.60;;;;;;5067359;28;20115;-50
2021/11/13 08:47:44;;;;;;;0.85;0.20;;;19.40;54.60;;;;;;5064359;28;20040;-48
2021/11/13 08:50:18;;;;;;;0.75;0.00;;;19.40;54.60;;;;;;5065943;28;20529;-47
2021/11/13 08:52:45;;;;;;;1.42;0.10;;;19.40;54.60;;;;;;5067433;28;20040;-51
2021/11/13 08:55:14;;;;;;;1.65;0.35;;;19.40;54.60;;;;;;5081926;28;20112;-50
2021/11/13 08:57:42;;;;;;;4.60;0.10;;;19.40;54.60;;;;;;5067926;28;20073;-50
2021/11/13 09:00:11;;;;;;;0.40;0.30;;;19.40;54.60;;;;;;5079824;28;20047;-51
2021/11/13 09:02:39;;;;;;;0.65;0.10;;;19.40;54.60;;;;;;5079208;28;20058;-47
2021/11/13 09:05:08;;;;;;;1.60;0.10;;;19.40;54.60;;;;;;5066207;28;20405;-48
2021/11/13 09:07:36;;;;;;;2.80;0.70;;;19.50;54.60;;;;;;5068538;28;20064;-46
2021/11/13 09:10:04;;;;;;;1.20;0.22;;;19.40;54.60;;;;;;5064114;28;20052;-48
2021/11/13 09:12:33;;;;;;;2.90;0.10;;;19.50;54.60;;;;;;5073097;28;20956;-48
2021/11/13 09:15:04;;;;;;;0.05;0.05;;;19.50;54.60;;;;;;5062986;28;20052;-49
2021/11/13 09:17:31;;;;;;;0.10;0.10;;;19.50;54.60;;;;;;5064816;28;20050;-47
2021/11/13 09:19:59;;;;;;;1.65;0.32;;;19.50;54.60;;;;;;5063217;28;20068;-47
2021/11/13 09:22:26;;;;;;;0.35;0.10;;;19.50;54.50;;;;;;5073895;28;20052;-48
2021/11/13 09:24:53;;;;;;;2.28;0.20;;;19.50;54.50;;;;;;5067036;28;20036;-47
2021/11/13 09:27:20;;;;;;;1.05;0.10;;;19.50;54.50;;;;;;5074986;28;20048;-48
2021/11/13 09:29:49;;;;;;;4.20;0.22;;;19.50;54.50;;;;;;5064881;28;20053;-59
2021/11/13 09:32:16;;;;;;;4.20;0.52;;;19.50;54.40;;;;;;5064775;28;20052;-58
2021/11/13 09:34:43;;;;;;;2.00;0.10;;;19.60;54.50;;;;;;5069508;28;20052;-57
2021/11/13 09:37:10;;;;;;;0.45;0.10;;;19.50;54.40;;;;;;5062707;28;20048;-57
2021/11/13 09:39:37;;;;;;;1.92;0.20;;;19.60;54.50;;;;;;5062687;28;20668;-56
2021/11/13 09:42:05;;;;;;;1.45;0.43;;;19.60;54.50;;;;;;5076438;28;20040;-55
2021/11/13 09:44:32;;;;;;;1.90;0.15;;;19.60;54.50;;;;;;5069267;28;20032;-54
2021/11/13 09:47:03;;;;;;;3.28;0.10;;;19.60;54.50;;;;;;5064121;28;20045;-54
2021/11/13 09:49:31;;;;;;;2.50;0.10;;;19.60;54.50;;;;;;5071572;28;20041;-56
2021/11/13 09:51:59;;;;;;;4.32;0.10;;;19.60;54.50;;;;;;5064468;28;20121;-58
2021/11/13 09:54:28;;;;;;;0.13;0.13;;;19.60;54.50;;;;;;5066932;28;20044;-57
2021/11/13 09:56:57;;;;;;;1.38;0.43;;;19.60;54.50;;;;;;5072794;28;20040;-58
2021/11/13 09:59:24;;;;;;;1.10;0.10;;;19.60;54.50;;;;;;5064600;28;20048;-58
2021/11/13 10:01:52;;;;;;;2.38;0.20;;;19.60;54.50;;;;;;5067589;28;20710;-57
2021/11/13 10:04:21;;;;;;;0.55;0.17;;;19.70;54.60;;;;;;5071030;28;20449;-58
2021/11/13 10:06:49;;;;;;;3.63;0.22;;;19.70;54.60;;;;;;5066987;28;20072;-57
2021/11/13 10:09:17;;;;;;;3.03;0.57;;;19.70;54.70;;;;;;5077813;28;20542;-58
2021/11/13 10:11:48;;;;;;;2.45;0.40;;;19.70;54.70;;;;;;5072843;28;20115;-58
2021/11/13 10:14:17;;;;;;;0.82;0.63;;;19.70;54.70;;;;;;5071042;28;20555;-57
2021/11/13 10:16:46;;;;;;;3.47;0.25;;;19.70;54.80;;;;;;5070187;28;20119;-58
2021/11/13 10:19:16;;;;;;;3.05;0.10;;;19.70;54.80;;;;;;5062590;28;20052;-58
2021/11/13 10:21:46;;;;;;;1.90;0.10;;;19.70;54.90;;;;;;5061714;28;20036;-57
2021/11/13 10:24:15;;;;;;;2.03;0.25;;;19.70;54.90;;;;;;5064908;28;20517;-57
2021/11/13 10:26:45;;;;;;;4.18;0.10;;;19.70;54.90;;;;;;5065450;28;20051;-58
2021/11/13 10:29:15;;;;;;;1.10;0.20;;;19.70;54.80;;;;;;5068575;28;20519;-55
2021/11/13 10:31:44;;;;;;;1.85;0.32;;;19.70;54.90;;;;;;5063993;28;20523;-57
2021/11/13 10:34:15;;;;;;;23.35;0.80;;;19.70;54.80;;;;;;5060885;28;20535;-56
2021/11/13 10:36:47;;;;;;;3.85;0.25;;;19.80;54.90;;;;;;5068762;28;20041;-57
2021/11/13 10:39:15;;;;;;;6.63;0.40;;;19.80;54.90;;;;;;5062065;28;20040;-58
2021/11/13 10:41:44;;;;;;;3.92;0.95;;;19.80;55.00;;;;;;5068270;28;20040;-57
2021/11/13 10:44:12;;;;;;;3.80;0.40;;;19.90;55.30;;;;;;5068851;28;20038;-58
2021/11/13 10:46:42;;;;;;;5.68;0.45;;;19.90;55.30;;;;;;5070577;28;20040;-58
2021/11/13 10:49:09;;;;;;;4.85;0.40;;;20.00;55.40;;;;;;5064165;28;20049;-58
2021/11/13 10:51:38;;;;;;;9.07;0.63;;;20.00;55.40;;;;;;5067286;28;20386;-54
2021/11/13 10:54:12;;;;;;;3.40;0.38;;;20.00;55.30;;;;;;5087481;28;20051;-58
2021/11/13 10:56:48;;;;;;;9.27;0.95;;;20.00;55.30;;;;;;5072151;28;20798;-57
2021/11/13 10:59:15;;;;;;;13.98;0.95;;;20.10;55.40;;;;;;5075668;28;20036;-54
2021/11/13 11:01:46;;;;;;;10.02;0.40;;;20.10;55.30;;;;;;5078260;28;20101;-58
2021/11/13 11:04:16;;;;;;;5.38;0.25;;;20.10;55.20;;;;;;5073815;28;20043;-55
2021/11/13 11:06:49;;;;;;;5.00;0.40;;;20.20;55.20;;;;;;5076738;28;20044;-58
2021/11/13 11:09:23;;;;;;;5.97;0.30;;;20.20;55.20;;;;;;5077364;28;20098;-58
2021/11/13 11:11:51;;;;;;;2.42;0.38;;;20.20;55.10;;;;;;5078009;28;20052;-58
2021/11/13 11:14:20;;;;;;;6.22;0.52;;;20.20;55.10;;;;;;5076833;28;20052;-57
2021/11/13 11:16:51;;;;;;;4.95;0.32;;;20.30;55.00;;;;;;5068862;28;20424;-59
2021/11/13 11:19:21;;;;;;;1.27;0.55;;;20.30;55.00;;;;;;5066404;28;20056;-55
2021/11/13 11:21:51;;;;;;;2.95;0.43;;;20.30;54.90;;;;;;5080005;28;20085;-54
2021/11/13 11:24:23;;;;;;;8.18;0.20;;;20.30;55.00;;;;;;5066862;28;20047;-55
2021/11/13 11:26:57;;;;;;;4.97;0.50;;;20.30;54.90;;;;;;5072463;28;20064;-53
2021/11/13 11:29:24;;;;;;;3.78;0.45;;;20.30;54.80;;;;;;5064871;28;20041;-55
2021/11/13 11:31:54;;;;;;;5.05;1.05;;;20.40;54.80;;;;;;5071676;28;20048;-53
2021/11/13 11:34:30;;;;;;;1.27;0.38;;;20.40;54.70;;;;;;5075124;28;20048;-55
2021/11/13 11:36:58;;;;;;;;;;;20.40;54.60;;;;;;5066482;28;20523;-56
2021/11/13 11:39:27;;;;;;;3.33;0.73;;;20.30;54.50;;;;;;5070426;28;20253;-52
2021/11/13 11:41:55;;;;;;;10.50;1.73;;;20.30;54.60;;;;;;5074381;28;20390;-54
2021/11/13 11:44:22;;;;;;;3.10;0.98;;;20.40;54.50;;;;;;5066092;28;20040;-51
2021/11/13 11:46:50;;;;;;;1.85;0.47;;;20.40;54.50;;;;;;5065560;28;20064;-53
2021/11/13 11:49:17;;;;;;;3.58;0.60;;;20.40;54.40;;;;;;5064399;28;20064;-52
2021/11/13 11:51:46;;;;;;;1.27;0.60;;;20.40;54.30;;;;;;5068418;28;20040;-49
2021/11/13 11:54:15;;;;;;;5.10;0.88;;;20.40;54.20;;;;;;5065428;28;20037;-55
2021/11/13 11:56:44;;;;;;;1.55;0.43;;;20.40;54.20;;;;;;5070416;28;20032;-56
2021/11/13 11:59:11;;;;;;;5.20;1.35;;;20.40;54.10;;;;;;5063359;28;20045;-53
2021/11/13 12:01:41;;;;;;;2.85;0.30;;;20.40;54.10;;;;;;5067288;28;20043;-53
2021/11/13 12:04:20;;;;;;;1.75;0.80;;;20.50;54.10;;;;;;5063416;28;20055;-54
2021/11/13 12:06:53;;;;;;;1.33;0.80;;;20.50;54.00;;;;;;5067175;28;20043;-49
2021/11/13 12:09:22;;;;;;;1.35;0.65;;;20.50;54.00;;;;;;5073694;28;20044;-53
2021/11/13 12:12:16;;;;;;;0.98;0.20;;;20.50;53.90;;;;;;5066787;28;20040;-51
2021/11/13 12:14:44;;;;;;;2.45;0.32;;;20.50;53.80;;;;;;5071074;28;20051;-52
2021/11/13 12:17:30;;;;;;;1.02;0.30;;;20.50;53.90;;;;;;5064655;28;20044;-53
2021/11/13 12:20:24;;;;;;;3.17;0.22;;;20.50;53.80;;;;;;5066889;28;20045;-55
2021/11/13 12:22:56;;;;;;;2.25;0.60;;;20.50;53.70;;;;;;5064522;28;20101;-55
2021/11/13 12:25:25;;;;;;;0.75;0.15;;;20.50;53.80;;;;;;5061341;28;20079;-54
2021/11/13 12:28:15;;;;;;;8.95;1.83;;;20.50;54.30;;;;;;5062262;28;20504;-55
2021/11/13 12:30:55;;;;;;;1.30;0.80;;;20.50;54.70;;;;;;5080299;28;20044;-60
2021/11/13 12:33:49;;;;;;;1.20;0.47;;;20.50;55.10;;;;;;5066264;28;20059;-61
2021/11/13 12:36:19;;;;;;;1.58;0.22;;;20.60;55.50;;;;;;5066057;28;20222;-61
2021/11/13 12:38:52;;;;;;;0.98;0.17;;;20.60;55.70;;;;;;5065676;28;20043;-58
2021/11/13 12:41:21;;;;;;;1.52;0.35;;;20.60;55.80;;;;;;5066438;28;20036;-60
2021/11/13 12:44:06;;;;;;;6.10;1.30;;;20.60;55.90;;;;;;5066192;28;20454;-61
2021/11/13 12:46:37;;;;;;;4.77;0.30;;;20.60;56.00;;;;;;5060888;28;20032;-49
2021/11/13 12:49:43;;;;;;;2.05;0.25;;;20.60;56.20;;;;;;5062185;28;20044;-54
2021/11/13 12:52:16;;;;;;;1.65;0.60;;;20.70;56.40;;;;;;5019538;28;20616;-52
2021/11/13 12:54:58;;;;;;;2.85;1.08;;;20.60;56.80;;;;;;5017420;28;20046;-54
2021/11/13 12:57:27;;;;;;;4.07;0.80;;;20.70;56.90;;;;;;5023286;28;20049;-56